sensor_id;sensor_type;location;lat;lon;timestamp;temperature;humidity
38333;DHT22;25748;46.670;14.272;2024-03-02T00:02:24;7.60;82.00
38333;DHT22;25748;46.670;14.272;2024-03-02T00:04:51;7.60;82.10
38333;DHT22;25748;46.670;14.272;2024-03-02T00:07:17;7.60;82.00
38333;DHT22;25748;46.670;14.272;2024-03-02T00:09:43;7.60;82.00
38333;DHT22;25748;46.670;14.272;2024-03-02T00:12:11;7.60;81.90
38333;DHT22;25748;46.670;14.272;2024-03-02T00:14:41;7.60;81.90
38333;DHT22;25748;46.670;14.272;2024-03-02T00:17:15;7.60;81.80
38333;DHT22;25748;46.670;14.272;2024-03-02T00:19:44;7.50;81.70
38333;DHT22;25748;46.670;14.272;2024-03-02T00:22:10;7.50;81.70
38333;DHT22;25748;46.670;14.272;2024-03-02T00:24:36;7.50;81.60
38333;DHT22;25748;46.670;14.272;2024-03-02T00:27:04;7.50;81.70
38333;DHT22;25748;46.670;14.272;2024-03-02T00:29:30;7.50;81.80
38333;DHT22;25748;46.670;14.272;2024-03-02T00:31:57;7.50;81.80
38333;DHT22;25748;46.670;14.272;2024-03-02T00:34:23;7.50;81.40
38333;DHT22;25748;46.670;14.272;2024-03-02T00:36:49;7.40;81.60
38333;DHT22;25748;46.670;14.272;2024-03-02T00:39:16;7.40;81.70
38333;DHT22;25748;46.670;14.272;2024-03-02T00:41:42;7.50;81.90
38333;DHT22;25748;46.670;14.272;2024-03-02T00:44:12;7.50;82.00
38333;DHT22;25748;46.670;14.272;2024-03-02T00:46:42;7.40;82.00
38333;DHT22;25748;46.670;14.272;2024-03-02T00:49:18;7.40;82.40
38333;DHT22;25748;46.670;14.272;2024-03-02T00:51:47;7.40;82.10
38333;DHT22;25748;46.670;14.272;2024-03-02T00:54:22;7.50;82.20
38333;DHT22;25748;46.670;14.272;2024-03-02T00:56:50;7.50;82.20
38333;DHT22;25748;46.670;14.272;2024-03-02T00:59:16;7.40;82.20
38333;DHT22;25748;46.670;14.272;2024-03-02T01:01:42;7.50;82.30
38333;DHT22;25748;46.670;14.272;2024-03-02T01:04:08;7.50;82.30
38333;DHT22;25748;46.670;14.272;2024-03-02T01:06:35;7.50;82.40
38333;DHT22;25748;46.670;14.272;2024-03-02T01:09:01;7.50;82.40
38333;DHT22;25748;46.670;14.272;2024-03-02T01:11:26;7.50;82.40
38333;DHT22;25748;46.670;14.272;2024-03-02T01:13:52;7.50;82.40
38333;DHT22;25748;46.670;14.272;2024-03-02T01:16:18;7.50;82.40
38333;DHT22;25748;46.670;14.272;2024-03-02T01:18:43;7.50;82.40
38333;DHT22;25748;46.670;14.272;2024-03-02T01:21:09;7.50;82.50
38333;DHT22;25748;46.670;14.272;2024-03-02T01:23:34;7.50;82.60
38333;DHT22;25748;46.670;14.272;2024-03-02T01:26:00;7.50;82.60
38333;DHT22;25748;46.670;14.272;2024-03-02T01:28:26;7.50;82.60
38333;DHT22;25748;46.670;14.272;2024-03-02T01:30:51;7.60;82.70
38333;DHT22;25748;46.670;14.272;2024-03-02T01:33:19;7.60;82.70
38333;DHT22;25748;46.670;14.272;2024-03-02T01:35:45;7.60;82.70
38333;DHT22;25748;46.670;14.272;2024-03-02T01:38:11;7.60;82.70
38333;DHT22;25748;46.670;14.272;2024-03-02T01:40:37;7.60;82.70
38333;DHT22;25748;46.670;14.272;2024-03-02T01:43:06;7.60;82.80
38333;DHT22;25748;46.670;14.272;2024-03-02T01:45:33;7.60;82.80
38333;DHT22;25748;46.670;14.272;2024-03-02T01:47:59;7.60;82.80
38333;DHT22;25748;46.670;14.272;2024-03-02T01:50:29;7.70;82.90
38333;DHT22;25748;46.670;14.272;2024-03-02T01:52:56;7.60;82.80
38333;DHT22;25748;46.670;14.272;2024-03-02T01:55:22;7.60;82.70
38333;DHT22;25748;46.670;14.272;2024-03-02T01:57:48;7.70;82.80
38333;DHT22;25748;46.670;14.272;2024-03-02T02:00:15;7.70;82.80
38333;DHT22;25748;46.670;14.272;2024-03-02T02:02:40;7.70;82.80
38333;DHT22;25748;46.670;14.272;2024-03-02T02:05:07;7.70;82.70
38333;DHT22;25748;46.670;14.272;2024-03-02T02:07:32;7.70;82.70
38333;DHT22;25748;46.670;14.272;2024-03-02T02:09:59;7.70;82.70
38333;DHT22;25748;46.670;14.272;2024-03-02T02:12:25;7.70;82.70
38333;DHT22;25748;46.670;14.272;2024-03-02T02:14:51;7.60;82.40
38333;DHT22;25748;46.670;14.272;2024-03-02T02:17:16;7.70;82.60
38333;DHT22;25748;46.670;14.272;2024-03-02T02:19:42;7.60;82.60
38333;DHT22;25748;46.670;14.272;2024-03-02T02:22:09;7.60;82.60
38333;DHT22;25748;46.670;14.272;2024-03-02T02:24:35;7.60;82.70
38333;DHT22;25748;46.670;14.272;2024-03-02T02:27:00;7.70;82.70
38333;DHT22;25748;46.670;14.272;2024-03-02T02:29:26;7.60;82.70
38333;DHT22;25748;46.670;14.272;2024-03-02T02:31:52;7.70;82.70
38333;DHT22;25748;46.670;14.272;2024-03-02T02:34:17;7.60;82.60
38333;DHT22;25748;46.670;14.272;2024-03-02T02:36:43;7.70;82.70
38333;DHT22;25748;46.670;14.272;2024-03-02T02:39:13;7.60;82.70
38333;DHT22;25748;46.670;14.272;2024-03-02T02:41:39;7.60;82.60
38333;DHT22;25748;46.670;14.272;2024-03-02T02:44:05;7.60;82.70
38333;DHT22;25748;46.670;14.272;2024-03-02T02:46:30;7.60;82.60
38333;DHT22;25748;46.670;14.272;2024-03-02T02:48:56;7.60;82.70
38333;DHT22;25748;46.670;14.272;2024-03-02T02:51:22;7.70;82.80
38333;DHT22;25748;46.670;14.272;2024-03-02T02:53:47;7.60;82.50
38333;DHT22;25748;46.670;14.272;2024-03-02T02:56:13;7.60;82.60
38333;DHT22;25748;46.670;14.272;2024-03-02T02:58:40;7.60;82.50
38333;DHT22;25748;46.670;14.272;2024-03-02T03:01:07;7.60;82.50
38333;DHT22;25748;46.670;14.272;2024-03-02T03:03:33;7.60;82.40
38333;DHT22;25748;46.670;14.272;2024-03-02T03:05:59;7.50;82.30
38333;DHT22;25748;46.670;14.272;2024-03-02T03:08:24;7.50;82.10
38333;DHT22;25748;46.670;14.272;2024-03-02T03:10:50;7.50;82.00
38333;DHT22;25748;46.670;14.272;2024-03-02T03:13:16;7.50;82.00
38333;DHT22;25748;46.670;14.272;2024-03-02T03:15:41;7.50;82.20
38333;DHT22;25748;46.670;14.272;2024-03-02T03:18:07;7.50;82.20
38333;DHT22;25748;46.670;14.272;2024-03-02T03:20:33;7.50;82.30
38333;DHT22;25748;46.670;14.272;2024-03-02T03:22:59;7.40;82.10
38333;DHT22;25748;46.670;14.272;2024-03-02T03:25:25;7.40;81.80
38333;DHT22;25748;46.670;14.272;2024-03-02T03:27:51;7.30;81.60
38333;DHT22;25748;46.670;14.272;2024-03-02T03:30:19;7.30;81.70
38333;DHT22;25748;46.670;14.272;2024-03-02T03:32:45;7.30;81.70
38333;DHT22;25748;46.670;14.272;2024-03-02T03:35:10;7.30;81.70
38333;DHT22;25748;46.670;14.272;2024-03-02T03:37:37;7.20;81.50
38333;DHT22;25748;46.670;14.272;2024-03-02T03:40:04;7.20;81.70
38333;DHT22;25748;46.670;14.272;2024-03-02T03:42:38;7.20;82.00
38333;DHT22;25748;46.670;14.272;2024-03-02T03:45:04;7.20;82.10
38333;DHT22;25748;46.670;14.272;2024-03-02T03:47:34;7.20;82.10
38333;DHT22;25748;46.670;14.272;2024-03-02T03:50:00;7.20;82.10
38333;DHT22;25748;46.670;14.272;2024-03-02T03:52:25;7.20;81.90
38333;DHT22;25748;46.670;14.272;2024-03-02T03:54:51;7.10;82.00
38333;DHT22;25748;46.670;14.272;2024-03-02T03:57:17;7.10;82.00
38333;DHT22;25748;46.670;14.272;2024-03-02T03:59:42;7.10;81.80
38333;DHT22;25748;46.670;14.272;2024-03-02T04:02:08;7.00;81.30
38333;DHT22;25748;46.670;14.272;2024-03-02T04:04:35;7.00;81.50
38333;DHT22;25748;46.670;14.272;2024-03-02T04:07:00;7.00;81.60
38333;DHT22;25748;46.670;14.272;2024-03-02T04:09:26;7.00;81.80
38333;DHT22;25748;46.670;14.272;2024-03-02T04:11:52;7.00;81.60
38333;DHT22;25748;46.670;14.272;2024-03-02T04:14:18;6.90;81.60
38333;DHT22;25748;46.670;14.272;2024-03-02T04:16:44;6.90;81.70
38333;DHT22;25748;46.670;14.272;2024-03-02T04:19:09;6.90;81.90
38333;DHT22;25748;46.670;14.272;2024-03-02T04:21:35;6.90;81.90
38333;DHT22;25748;46.670;14.272;2024-03-02T04:24:00;6.90;81.90
38333;DHT22;25748;46.670;14.272;2024-03-02T04:26:26;6.90;82.10
38333;DHT22;25748;46.670;14.272;2024-03-02T04:28:52;6.90;82.20
38333;DHT22;25748;46.670;14.272;2024-03-02T04:31:19;6.90;82.40
38333;DHT22;25748;46.670;14.272;2024-03-02T04:33:45;6.90;82.90
38333;DHT22;25748;46.670;14.272;2024-03-02T04:36:10;7.00;82.60
38333;DHT22;25748;46.670;14.272;2024-03-02T04:38:37;7.00;82.60
38333;DHT22;25748;46.670;14.272;2024-03-02T04:41:06;7.00;82.70
38333;DHT22;25748;46.670;14.272;2024-03-02T04:43:32;7.00;82.70
38333;DHT22;25748;46.670;14.272;2024-03-02T04:45:58;7.00;82.70
38333;DHT22;25748;46.670;14.272;2024-03-02T04:48:24;7.00;82.60
38333;DHT22;25748;46.670;14.272;2024-03-02T04:50:51;7.00;82.70
38333;DHT22;25748;46.670;14.272;2024-03-02T04:53:17;7.00;82.60
38333;DHT22;25748;46.670;14.272;2024-03-02T04:55:43;7.00;82.60
38333;DHT22;25748;46.670;14.272;2024-03-02T04:58:08;7.00;82.80
38333;DHT22;25748;46.670;14.272;2024-03-02T05:00:35;7.00;82.80
38333;DHT22;25748;46.670;14.272;2024-03-02T05:03:01;7.00;82.80
38333;DHT22;25748;46.670;14.272;2024-03-02T05:05:27;7.00;82.80
38333;DHT22;25748;46.670;14.272;2024-03-02T05:07:52;7.00;82.80
38333;DHT22;25748;46.670;14.272;2024-03-02T05:10:18;7.00;82.70
38333;DHT22;25748;46.670;14.272;2024-03-02T05:12:44;7.00;82.70
38333;DHT22;25748;46.670;14.272;2024-03-02T05:15:10;7.00;82.80
38333;DHT22;25748;46.670;14.272;2024-03-02T05:17:37;7.10;82.90
38333;DHT22;25748;46.670;14.272;2024-03-02T05:20:04;7.00;82.80
38333;DHT22;25748;46.670;14.272;2024-03-02T05:22:30;7.00;82.80
38333;DHT22;25748;46.670;14.272;2024-03-02T05:24:56;7.00;82.60
38333;DHT22;25748;46.670;14.272;2024-03-02T05:27:22;7.00;82.50
38333;DHT22;25748;46.670;14.272;2024-03-02T05:29:47;7.00;82.60
38333;DHT22;25748;46.670;14.272;2024-03-02T05:32:13;7.00;82.70
38333;DHT22;25748;46.670;14.272;2024-03-02T05:34:39;7.00;82.90
38333;DHT22;25748;46.670;14.272;2024-03-02T05:37:04;7.00;82.90
38333;DHT22;25748;46.670;14.272;2024-03-02T05:39:32;7.00;82.70
38333;DHT22;25748;46.670;14.272;2024-03-02T05:41:58;7.00;82.70
38333;DHT22;25748;46.670;14.272;2024-03-02T05:44:24;7.00;82.80
38333;DHT22;25748;46.670;14.272;2024-03-02T05:46:49;7.00;82.80
38333;DHT22;25748;46.670;14.272;2024-03-02T05:49:15;7.00;82.70
38333;DHT22;25748;46.670;14.272;2024-03-02T05:51:40;7.00;82.70
38333;DHT22;25748;46.670;14.272;2024-03-02T05:54:07;7.00;82.80
38333;DHT22;25748;46.670;14.272;2024-03-02T05:56:32;7.00;82.80
38333;DHT22;25748;46.670;14.272;2024-03-02T05:58:58;7.00;82.80
38333;DHT22;25748;46.670;14.272;2024-03-02T06:01:40;7.00;82.90
38333;DHT22;25748;46.670;14.272;2024-03-02T06:04:06;7.00;82.80
38333;DHT22;25748;46.670;14.272;2024-03-02T06:06:32;7.00;82.80
38333;DHT22;25748;46.670;14.272;2024-03-02T06:09:00;7.00;82.80
38333;DHT22;25748;46.670;14.272;2024-03-02T06:11:25;7.00;82.80
38333;DHT22;25748;46.670;14.272;2024-03-02T06:13:51;7.00;82.90
38333;DHT22;25748;46.670;14.272;2024-03-02T06:16:17;7.00;83.00
38333;DHT22;25748;46.670;14.272;2024-03-02T06:18:42;7.00;83.20
38333;DHT22;25748;46.670;14.272;2024-03-02T06:21:08;7.10;83.40
38333;DHT22;25748;46.670;14.272;2024-03-02T06:23:34;7.10;83.50
38333;DHT22;25748;46.670;14.272;2024-03-02T06:26:00;7.10;83.60
38333;DHT22;25748;46.670;14.272;2024-03-02T06:28:26;7.20;83.70
38333;DHT22;25748;46.670;14.272;2024-03-02T06:30:52;7.10;83.70
38333;DHT22;25748;46.670;14.272;2024-03-02T06:33:17;7.20;83.80
38333;DHT22;25748;46.670;14.272;2024-03-02T06:35:43;7.20;83.90
38333;DHT22;25748;46.670;14.272;2024-03-02T06:38:08;7.30;84.00
38333;DHT22;25748;46.670;14.272;2024-03-02T06:40:34;7.30;84.00
38333;DHT22;25748;46.670;14.272;2024-03-02T06:43:00;7.30;84.00
38333;DHT22;25748;46.670;14.272;2024-03-02T06:45:25;7.30;84.00
38333;DHT22;25748;46.670;14.272;2024-03-02T06:47:51;7.40;84.10
38333;DHT22;25748;46.670;14.272;2024-03-02T06:50:17;7.30;84.10
38333;DHT22;25748;46.670;14.272;2024-03-02T06:52:42;7.40;84.20
38333;DHT22;25748;46.670;14.272;2024-03-02T06:55:09;7.40;84.20
38333;DHT22;25748;46.670;14.272;2024-03-02T06:57:34;7.40;84.20
38333;DHT22;25748;46.670;14.272;2024-03-02T07:00:00;7.50;84.30
38333;DHT22;25748;46.670;14.272;2024-03-02T07:02:26;7.50;84.30
38333;DHT22;25748;46.670;14.272;2024-03-02T07:04:53;7.50;84.30
38333;DHT22;25748;46.670;14.272;2024-03-02T07:07:18;7.60;84.30
38333;DHT22;25748;46.670;14.272;2024-03-02T07:09:44;7.50;84.20
38333;DHT22;25748;46.670;14.272;2024-03-02T07:12:10;7.60;84.30
38333;DHT22;25748;46.670;14.272;2024-03-02T07:14:35;7.60;84.20
38333;DHT22;25748;46.670;14.272;2024-03-02T07:17:36;7.60;84.20
38333;DHT22;25748;46.670;14.272;2024-03-02T07:20:02;7.60;84.10
38333;DHT22;25748;46.670;14.272;2024-03-02T07:22:29;7.70;84.20
38333;DHT22;25748;46.670;14.272;2024-03-02T07:24:55;7.70;84.10
38333;DHT22;25748;46.670;14.272;2024-03-02T07:27:21;7.70;84.00
38333;DHT22;25748;46.670;14.272;2024-03-02T07:29:47;7.70;84.10
38333;DHT22;25748;46.670;14.272;2024-03-02T07:32:12;7.70;84.10
38333;DHT22;25748;46.670;14.272;2024-03-02T07:34:38;7.70;84.10
38333;DHT22;25748;46.670;14.272;2024-03-02T07:37:04;7.70;84.10
38333;DHT22;25748;46.670;14.272;2024-03-02T07:39:34;7.80;84.20
38333;DHT22;25748;46.670;14.272;2024-03-02T07:42:06;7.80;84.10
38333;DHT22;25748;46.670;14.272;2024-03-02T07:44:33;7.80;84.10
38333;DHT22;25748;46.670;14.272;2024-03-02T07:46:59;7.80;84.10
38333;DHT22;25748;46.670;14.272;2024-03-02T07:49:26;7.90;84.20
38333;DHT22;25748;46.670;14.272;2024-03-02T07:51:52;7.90;84.10
38333;DHT22;25748;46.670;14.272;2024-03-02T07:54:18;7.90;84.10
38333;DHT22;25748;46.670;14.272;2024-03-02T07:56:45;8.00;84.20
38333;DHT22;25748;46.670;14.272;2024-03-02T07:59:15;8.00;84.10
38333;DHT22;25748;46.670;14.272;2024-03-02T08:01:44;8.00;84.10
38333;DHT22;25748;46.670;14.272;2024-03-02T08:04:11;8.00;84.10
38333;DHT22;25748;46.670;14.272;2024-03-02T08:06:37;8.10;84.20
38333;DHT22;25748;46.670;14.272;2024-03-02T08:09:03;8.10;84.10
38333;DHT22;25748;46.670;14.272;2024-03-02T08:11:34;8.20;84.10
38333;DHT22;25748;46.670;14.272;2024-03-02T08:14:00;8.20;84.00
38333;DHT22;25748;46.670;14.272;2024-03-02T08:16:28;8.20;83.80
38333;DHT22;25748;46.670;14.272;2024-03-02T08:18:54;8.20;83.70
38333;DHT22;25748;46.670;14.272;2024-03-02T08:21:22;8.30;83.70
38333;DHT22;25748;46.670;14.272;2024-03-02T08:23:48;8.30;83.70
38333;DHT22;25748;46.670;14.272;2024-03-02T08:26:14;8.30;83.60
38333;DHT22;25748;46.670;14.272;2024-03-02T08:28:39;8.40;83.70
38333;DHT22;25748;46.670;14.272;2024-03-02T08:31:08;8.40;83.40
38333;DHT22;25748;46.670;14.272;2024-03-02T08:33:34;8.40;83.30
38333;DHT22;25748;46.670;14.272;2024-03-02T08:36:03;8.50;83.30
38333;DHT22;25748;46.670;14.272;2024-03-02T08:38:29;8.50;83.10
38333;DHT22;25748;46.670;14.272;2024-03-02T08:40:54;8.60;83.10
38333;DHT22;25748;46.670;14.272;2024-03-02T08:43:20;8.70;83.20
38333;DHT22;25748;46.670;14.272;2024-03-02T08:45:48;8.70;82.70
38333;DHT22;25748;46.670;14.272;2024-03-02T08:48:13;8.70;82.70
38333;DHT22;25748;46.670;14.272;2024-03-02T08:50:39;8.80;82.60
38333;DHT22;25748;46.670;14.272;2024-03-02T08:53:05;8.90;82.50
38333;DHT22;25748;46.670;14.272;2024-03-02T08:55:30;8.90;81.70
38333;DHT22;25748;46.670;14.272;2024-03-02T08:57:56;9.00;81.80
38333;DHT22;25748;46.670;14.272;2024-03-02T09:00:23;9.10;81.60
38333;DHT22;25748;46.670;14.272;2024-03-02T09:02:49;9.20;81.40
38333;DHT22;25748;46.670;14.272;2024-03-02T09:05:15;9.20;81.10
38333;DHT22;25748;46.670;14.272;2024-03-02T09:07:40;9.30;80.80
38333;DHT22;25748;46.670;14.272;2024-03-02T09:10:07;9.40;80.30
38333;DHT22;25748;46.670;14.272;2024-03-02T09:12:33;9.40;79.30
38333;DHT22;25748;46.670;14.272;2024-03-02T09:15:00;9.50;79.10
38333;DHT22;25748;46.670;14.272;2024-03-02T09:17:26;9.50;78.40
38333;DHT22;25748;46.670;14.272;2024-03-02T09:19:52;9.50;77.40
38333;DHT22;25748;46.670;14.272;2024-03-02T09:22:18;9.50;76.70
38333;DHT22;25748;46.670;14.272;2024-03-02T09:24:44;9.60;77.00
38333;DHT22;25748;46.670;14.272;2024-03-02T09:27:10;9.60;77.00
38333;DHT22;25748;46.670;14.272;2024-03-02T09:29:36;9.60;76.50
38333;DHT22;25748;46.670;14.272;2024-03-02T09:32:01;9.60;75.90
38333;DHT22;25748;46.670;14.272;2024-03-02T09:34:28;9.70;75.70
38333;DHT22;25748;46.670;14.272;2024-03-02T09:36:53;9.70;75.20
38333;DHT22;25748;46.670;14.272;2024-03-02T09:39:19;9.80;74.70
38333;DHT22;25748;46.670;14.272;2024-03-02T09:41:45;9.80;74.20
38333;DHT22;25748;46.670;14.272;2024-03-02T09:44:13;9.80;74.20
38333;DHT22;25748;46.670;14.272;2024-03-02T09:46:38;9.80;74.00
38333;DHT22;25748;46.670;14.272;2024-03-02T09:49:04;9.80;74.00
38333;DHT22;25748;46.670;14.272;2024-03-02T09:51:32;9.80;73.80
38333;DHT22;25748;46.670;14.272;2024-03-02T09:54:00;9.90;74.00
38333;DHT22;25748;46.670;14.272;2024-03-02T09:56:26;9.90;74.20
38333;DHT22;25748;46.670;14.272;2024-03-02T09:58:52;10.00;73.90
38333;DHT22;25748;46.670;14.272;2024-03-02T10:01:17;10.00;73.70
38333;DHT22;25748;46.670;14.272;2024-03-02T10:03:44;10.00;73.70
38333;DHT22;25748;46.670;14.272;2024-03-02T10:06:25;10.10;74.00
38333;DHT22;25748;46.670;14.272;2024-03-02T10:08:52;10.10;74.20
38333;DHT22;25748;46.670;14.272;2024-03-02T10:14:07;10.20;74.00
38333;DHT22;25748;46.670;14.272;2024-03-02T10:16:43;10.20;73.90
38333;DHT22;25748;46.670;14.272;2024-03-02T10:19:23;10.30;73.60
38333;DHT22;25748;46.670;14.272;2024-03-02T10:21:54;10.30;73.10
38333;DHT22;25748;46.670;14.272;2024-03-02T10:24:22;10.30;73.00
38333;DHT22;25748;46.670;14.272;2024-03-02T10:26:49;10.30;71.80
38333;DHT22;25748;46.670;14.272;2024-03-02T10:29:15;10.30;71.70
38333;DHT22;25748;46.670;14.272;2024-03-02T10:31:45;10.30;71.90
38333;DHT22;25748;46.670;14.272;2024-03-02T10:34:13;10.40;71.30
38333;DHT22;25748;46.670;14.272;2024-03-02T10:36:42;10.40;71.40
38333;DHT22;25748;46.670;14.272;2024-03-02T10:39:09;10.40;71.30
38333;DHT22;25748;46.670;14.272;2024-03-02T10:41:36;10.50;71.30
38333;DHT22;25748;46.670;14.272;2024-03-02T10:44:03;10.50;71.70
38333;DHT22;25748;46.670;14.272;2024-03-02T10:46:30;10.60;71.90
38333;DHT22;25748;46.670;14.272;2024-03-02T10:49:00;10.70;71.30
38333;DHT22;25748;46.670;14.272;2024-03-02T10:51:27;10.70;70.90
38333;DHT22;25748;46.670;14.272;2024-03-02T10:53:54;10.80;70.20
38333;DHT22;25748;46.670;14.272;2024-03-02T10:56:34;10.90;70.10
38333;DHT22;25748;46.670;14.272;2024-03-02T11:01:30;11.00;69.30
38333;DHT22;25748;46.670;14.272;2024-03-02T11:04:02;11.00;68.70
38333;DHT22;25748;46.670;14.272;2024-03-02T11:06:28;10.90;67.50
38333;DHT22;25748;46.670;14.272;2024-03-02T11:09:00;11.00;67.70
38333;DHT22;25748;46.670;14.272;2024-03-02T11:11:32;11.00;68.20
38333;DHT22;25748;46.670;14.272;2024-03-02T11:14:01;11.10;68.80
38333;DHT22;25748;46.670;14.272;2024-03-02T11:16:38;11.10;68.30
38333;DHT22;25748;46.670;14.272;2024-03-02T11:19:15;11.10;67.40
38333;DHT22;25748;46.670;14.272;2024-03-02T11:21:42;11.10;68.00
38333;DHT22;25748;46.670;14.272;2024-03-02T11:26:49;11.20;67.50
38333;DHT22;25748;46.670;14.272;2024-03-02T11:32:04;11.30;67.40
38333;DHT22;25748;46.670;14.272;2024-03-02T11:34:31;11.40;68.00
38333;DHT22;25748;46.670;14.272;2024-03-02T11:36:58;11.50;67.40
38333;DHT22;25748;46.670;14.272;2024-03-02T11:39:29;11.60;67.30
38333;DHT22;25748;46.670;14.272;2024-03-02T11:41:58;11.80;66.60
38333;DHT22;25748;46.670;14.272;2024-03-02T11:44:32;11.80;66.10
38333;DHT22;25748;46.670;14.272;2024-03-02T11:47:05;12.00;65.90
38333;DHT22;25748;46.670;14.272;2024-03-02T11:49:40;12.10;65.50
38333;DHT22;25748;46.670;14.272;2024-03-02T11:52:08;12.40;65.60
38333;DHT22;25748;46.670;14.272;2024-03-02T11:54:36;12.60;63.40
38333;DHT22;25748;46.670;14.272;2024-03-02T11:57:05;12.80;62.50
38333;DHT22;25748;46.670;14.272;2024-03-02T11:59:31;12.90;60.10
38333;DHT22;25748;46.670;14.272;2024-03-02T12:01:58;13.10;59.70
38333;DHT22;25748;46.670;14.272;2024-03-02T12:04:24;13.30;60.90
38333;DHT22;25748;46.670;14.272;2024-03-02T12:07:09;13.50;59.40
38333;DHT22;25748;46.670;14.272;2024-03-02T12:09:35;13.60;59.40
38333;DHT22;25748;46.670;14.272;2024-03-02T12:12:08;13.80;58.70
38333;DHT22;25748;46.670;14.272;2024-03-02T12:14:36;13.90;57.40
38333;DHT22;25748;46.670;14.272;2024-03-02T12:17:03;14.00;57.00
38333;DHT22;25748;46.670;14.272;2024-03-02T12:19:29;14.00;56.60
38333;DHT22;25748;46.670;14.272;2024-03-02T12:21:56;14.00;56.30
38333;DHT22;25748;46.670;14.272;2024-03-02T12:24:23;14.00;56.50
38333;DHT22;25748;46.670;14.272;2024-03-02T12:26:50;14.00;56.60
38333;DHT22;25748;46.670;14.272;2024-03-02T12:29:16;14.10;57.20
38333;DHT22;25748;46.670;14.272;2024-03-02T12:31:43;14.20;56.20
38333;DHT22;25748;46.670;14.272;2024-03-02T12:34:13;14.10;56.00
38333;DHT22;25748;46.670;14.272;2024-03-02T12:36:41;14.00;55.00
38333;DHT22;25748;46.670;14.272;2024-03-02T12:39:10;13.90;54.70
38333;DHT22;25748;46.670;14.272;2024-03-02T12:41:39;13.90;55.60
38333;DHT22;25748;46.670;14.272;2024-03-02T12:44:05;14.00;56.30
38333;DHT22;25748;46.670;14.272;2024-03-02T12:46:34;14.00;56.50
38333;DHT22;25748;46.670;14.272;2024-03-02T12:49:09;14.10;57.00
38333;DHT22;25748;46.670;14.272;2024-03-02T12:51:37;14.20;55.90
38333;DHT22;25748;46.670;14.272;2024-03-02T12:54:03;14.30;55.30
38333;DHT22;25748;46.670;14.272;2024-03-02T12:56:33;14.40;56.10
38333;DHT22;25748;46.670;14.272;2024-03-02T12:59:00;14.50;55.60
38333;DHT22;25748;46.670;14.272;2024-03-02T13:01:26;14.50;54.50
38333;DHT22;25748;46.670;14.272;2024-03-02T13:03:53;14.50;54.20
38333;DHT22;25748;46.670;14.272;2024-03-02T13:06:20;14.40;54.50
38333;DHT22;25748;46.670;14.272;2024-03-02T13:08:46;14.40;55.10
38333;DHT22;25748;46.670;14.272;2024-03-02T13:11:13;14.50;55.00
38333;DHT22;25748;46.670;14.272;2024-03-02T13:13:42;14.60;55.00
38333;DHT22;25748;46.670;14.272;2024-03-02T13:16:09;14.60;55.00
38333;DHT22;25748;46.670;14.272;2024-03-02T13:18:35;14.70;54.10
38333;DHT22;25748;46.670;14.272;2024-03-02T13:21:01;14.70;54.60
38333;DHT22;25748;46.670;14.272;2024-03-02T13:23:27;14.80;54.50
38333;DHT22;25748;46.670;14.272;2024-03-02T13:25:56;14.90;54.90
38333;DHT22;25748;46.670;14.272;2024-03-02T13:28:25;15.00;54.60
38333;DHT22;25748;46.670;14.272;2024-03-02T13:30:51;15.10;54.40
38333;DHT22;25748;46.670;14.272;2024-03-02T13:33:16;15.20;54.50
38333;DHT22;25748;46.670;14.272;2024-03-02T13:35:51;15.40;54.50
38333;DHT22;25748;46.670;14.272;2024-03-02T13:38:20;15.50;53.90
38333;DHT22;25748;46.670;14.272;2024-03-02T13:40:48;15.60;53.50
38333;DHT22;25748;46.670;14.272;2024-03-02T13:43:17;15.70;53.20
38333;DHT22;25748;46.670;14.272;2024-03-02T13:45:43;15.70;53.70
38333;DHT22;25748;46.670;14.272;2024-03-02T13:48:08;15.90;52.90
38333;DHT22;25748;46.670;14.272;2024-03-02T13:50:35;15.90;52.90
38333;DHT22;25748;46.670;14.272;2024-03-02T13:53:00;16.00;52.10
38333;DHT22;25748;46.670;14.272;2024-03-02T13:55:26;16.00;50.90
38333;DHT22;25748;46.670;14.272;2024-03-02T13:57:52;16.00;51.80
38333;DHT22;25748;46.670;14.272;2024-03-02T14:00:18;16.10;52.20
38333;DHT22;25748;46.670;14.272;2024-03-02T14:02:45;16.20;52.50
38333;DHT22;25748;46.670;14.272;2024-03-02T14:05:11;16.30;52.50
38333;DHT22;25748;46.670;14.272;2024-03-02T14:07:41;16.40;52.00
38333;DHT22;25748;46.670;14.272;2024-03-02T14:10:07;16.40;51.10
38333;DHT22;25748;46.670;14.272;2024-03-02T14:12:33;16.40;50.30
38333;DHT22;25748;46.670;14.272;2024-03-02T14:14:58;16.40;51.30
38333;DHT22;25748;46.670;14.272;2024-03-02T14:17:25;16.30;50.90
38333;DHT22;25748;46.670;14.272;2024-03-02T14:19:50;16.30;51.00
38333;DHT22;25748;46.670;14.272;2024-03-02T14:22:19;16.20;50.70
38333;DHT22;25748;46.670;14.272;2024-03-02T14:24:45;16.20;51.00
38333;DHT22;25748;46.670;14.272;2024-03-02T14:27:10;16.10;50.90
38333;DHT22;25748;46.670;14.272;2024-03-02T14:29:36;16.10;50.30
38333;DHT22;25748;46.670;14.272;2024-03-02T14:32:03;16.10;51.00
38333;DHT22;25748;46.670;14.272;2024-03-02T14:34:29;16.10;50.40
38333;DHT22;25748;46.670;14.272;2024-03-02T14:36:55;16.00;51.10
38333;DHT22;25748;46.670;14.272;2024-03-02T14:39:21;16.00;50.90
38333;DHT22;25748;46.670;14.272;2024-03-02T14:41:47;16.10;50.40
38333;DHT22;25748;46.670;14.272;2024-03-02T14:44:12;16.00;50.70
38333;DHT22;25748;46.670;14.272;2024-03-02T14:46:38;16.00;50.50
38333;DHT22;25748;46.670;14.272;2024-03-02T14:49:04;16.00;50.30
38333;DHT22;25748;46.670;14.272;2024-03-02T14:51:30;16.00;50.20
38333;DHT22;25748;46.670;14.272;2024-03-02T14:53:56;15.90;50.00
38333;DHT22;25748;46.670;14.272;2024-03-02T14:56:21;15.90;49.90
38333;DHT22;25748;46.670;14.272;2024-03-02T14:58:47;15.80;49.90
38333;DHT22;25748;46.670;14.272;2024-03-02T15:01:13;15.70;49.50
38333;DHT22;25748;46.670;14.272;2024-03-02T15:03:40;15.70;50.00
38333;DHT22;25748;46.670;14.272;2024-03-02T15:06:05;15.60;50.00
38333;DHT22;25748;46.670;14.272;2024-03-02T15:08:33;15.50;50.40
38333;DHT22;25748;46.670;14.272;2024-03-02T15:10:58;15.50;50.50
38333;DHT22;25748;46.670;14.272;2024-03-02T15:13:25;15.40;50.40
38333;DHT22;25748;46.670;14.272;2024-03-02T15:15:52;15.40;50.30
38333;DHT22;25748;46.670;14.272;2024-03-02T15:18:18;15.40;50.20
38333;DHT22;25748;46.670;14.272;2024-03-02T15:20:43;15.30;50.30
38333;DHT22;25748;46.670;14.272;2024-03-02T15:23:09;15.20;50.50
38333;DHT22;25748;46.670;14.272;2024-03-02T15:25:35;15.10;50.60
38333;DHT22;25748;46.670;14.272;2024-03-02T15:28:01;15.00;50.20
38333;DHT22;25748;46.670;14.272;2024-03-02T15:30:27;14.90;50.40
38333;DHT22;25748;46.670;14.272;2024-03-02T15:32:53;14.70;50.60
38333;DHT22;25748;46.670;14.272;2024-03-02T15:35:18;14.70;50.80